Time;durP1;ratioP1;P1;durP2;ratioP2;P2;SDS_P1;SDS_P2;PMS_P1;PMS_P2;Temp;Humidity;BMP_temperature;BMP_pressure;BME280_temperature;BME280_humidity;BME280_pressure;Samples;Min_cycle;Max_cycle;Signal;HPM_P1;HPM_P2
2021/08/16 00:00:20;;;;;;;;;;;20.40;83.90;;;19.76;76.69;99935.13;5031277;28;20475;-82
2021/08/16 00:02:47;;;;;;;;;;;20.40;84.10;;;19.75;76.99;99939.00;5031192;28;19957;-82
2021/08/16 00:05:15;;;;;;;;;;;20.40;84.40;;;19.68;77.42;99931.69;5031152;28;20023;-82
2021/08/16 00:07:43;;;;;;;;;;;20.40;84.60;;;19.61;77.69;99919.19;5030912;28;20397;-82
2021/08/16 00:10:11;;;;;;;;;;;20.40;84.60;;;19.59;77.72;99930.50;5013205;28;19929;-82
2021/08/16 00:12:38;;;;;;;;;;;20.30;84.60;;;19.60;77.78;99923.06;5031289;28;19929;-82
2021/08/16 00:15:06;;;;;;;;;;;20.30;84.60;;;19.54;77.86;99925.75;5013327;28;19994;-82
2021/08/16 00:17:35;;;;;;;;;;;20.30;84.80;;;19.54;77.73;99928.50;5030928;28;20014;-82
2021/08/16 00:20:02;;;;;;;;;;;20.30;84.70;;;19.47;78.04;99916.81;5031108;28;19925;-82
2021/08/16 00:22:29;;;;;;;;;;;20.20;84.70;;;19.48;78.43;99926.78;5031171;28;20027;-82
2021/08/16 00:24:56;;;;;;;;;;;20.20;85.00;;;19.48;78.07;99921.28;5030965;28;19965;-82
2021/08/16 00:27:23;;;;;;;;;;;20.20;85.00;;;19.48;78.13;99915.75;5030614;28;19928;-82
2021/08/16 00:29:50;;;;;;;;;;;20.20;85.00;;;19.49;78.00;99924.84;5029797;28;19983;-82
2021/08/16 00:32:17;;;;;;;;;;;20.20;85.10;;;19.48;78.25;99921.28;5030030;28;19936;-82
2021/08/16 00:34:45;;;;;;;;;;;20.20;85.30;;;19.49;78.15;99919.34;5030708;28;19969;-82
2021/08/16 00:37:12;;;;;;;;;;;20.20;85.20;;;19.43;77.77;99918.44;5030299;28;19925;-82
2021/08/16 00:39:39;;;;;;;;;;;20.20;84.80;;;19.37;77.51;99918.66;5030637;28;19929;-83
2021/08/16 00:42:09;;;;;;;;;;;20.30;84.80;;;19.38;77.07;99909.28;5026831;23;19926;-84
2021/08/16 00:44:36;;;;;;;;;;;20.30;84.70;;;19.37;76.80;99913.13;5010754;28;20394;-84
2021/08/16 00:47:03;;;;;;;;;;;20.30;84.10;;;19.29;76.83;99911.66;5010554;28;20293;-82
2021/08/16 00:49:30;;;;;;;;;;;20.20;84.00;;;19.30;76.82;99918.84;4996298;28;20769;-84
2021/08/16 00:51:59;;;;;;;;;;;20.20;84.00;;;19.36;76.08;99912.28;4991313;28;20458;-84
2021/08/16 00:54:26;;;;;;;;;;;20.20;83.50;;;19.36;75.19;99917.78;4991052;28;19968;-82
2021/08/16 00:56:53;;;;;;;;;;;20.20;83.00;;;19.33;74.99;99923.84;4990856;28;19929;-84
2021/08/16 00:59:21;;;;;;;;;;;20.20;82.90;;;19.26;74.00;99928.72;4991075;28;20052;-84
2021/08/16 01:01:48;;;;;;;;;;;20.20;82.50;;;19.20;73.44;99940.78;4990828;28;19945;-82
2021/08/16 01:04:15;;;;;;;;;;;20.10;81.90;;;19.16;72.93;99939.63;4990791;28;19929;-82
2021/08/16 01:06:42;;;;;;;;;;;20.00;80.80;;;19.13;72.81;99941.81;4990496;28;19976;-84
2021/08/16 01:09:11;;;;;;;;;;;19.90;81.60;;;19.06;72.71;99946.69;4990646;28;19937;-82
2021/08/16 01:11:38;;;;;;;;;;;19.90;81.80;;;19.02;72.40;99942.75;4993421;28;20024;-84
2021/08/16 01:14:05;;;;;;;;;;;19.80;81.60;;;19.01;72.38;99945.78;4990970;28;19948;-84
2021/08/16 01:16:32;;;;;;;;;;;19.70;81.50;;;19.00;72.68;99946.84;4990483;28;19934;-83
2021/08/16 01:18:59;;;;;;;;;;;19.60;81.30;;;18.90;71.90;99944.78;4990803;28;19960;-84
2021/08/16 01:21:26;;;;;;;;;;;19.50;81.10;;;18.90;71.99;99950.28;4990685;28;20020;-83
2021/08/16 01:23:53;;;;;;;;;;;19.40;81.40;;;18.88;71.16;99946.97;4990677;28;20036;-84
2021/08/16 01:26:22;;;;;;;;;;;19.40;81.30;;;18.81;71.26;99954.56;4990233;28;20032;-81
2021/08/16 01:28:50;;;;;;;;;;;19.30;80.80;;;18.74;70.56;99955.56;4990594;28;19929;-82
2021/08/16 01:31:18;;;;;;;;;;;19.30;81.30;;;18.70;71.87;99954.41;4990355;28;19969;-84
2021/08/16 01:33:45;;;;;;;;;;;19.20;81.00;;;18.65;69.82;99950.72;4990391;28;19929;-84
2021/08/16 01:36:12;;;;;;;;;;;19.20;79.90;;;18.58;70.76;99953.63;4991896;28;19980;-83
2021/08/16 01:38:42;;;;;;;;;;;19.10;80.80;;;18.58;71.52;99950.88;5009884;28;19935;-84
2021/08/16 01:41:09;;;;;;;;;;;19.10;81.10;;;18.56;71.33;99947.53;5009417;28;19929;-82
2021/08/16 01:43:36;;;;;;;;;;;19.10;81.10;;;18.50;71.38;99956.81;5009134;28;19973;-82
2021/08/16 01:46:05;;;;;;;;;;;19.10;81.00;;;18.50;70.74;99956.81;5009310;28;20363;-83
2021/08/16 01:48:32;;;;;;;;;;;19.10;80.70;;;18.46;70.91;99964.75;5009640;28;19937;-84
2021/08/16 01:50:59;;;;;;;;;;;19.10;81.10;;;18.50;71.32;99962.34;5009750;28;19936;-84
2021/08/16 01:53:27;;;;;;;;;;;19.10;80.60;;;18.50;71.38;99959.56;5009607;28;19929;-81
2021/08/16 01:55:54;;;;;;;;;;;19.00;80.80;;;18.46;71.18;99962.00;4992932;28;19926;-84
2021/08/16 01:58:21;;;;;;;;;;;19.00;80.80;;;18.41;71.52;99958.31;4989779;28;20566;-84
2021/08/16 02:00:48;;;;;;;;;;;19.00;80.80;;;18.36;71.27;99953.56;4989459;28;19925;-84
2021/08/16 02:03:16;;;;;;;;;;;19.00;81.10;;;18.36;71.53;99953.56;4989547;28;19984;-82
2021/08/16 02:05:43;;;;;;;;;;;19.00;80.90;;;18.27;71.36;99950.38;4989474;28;19930;-82
2021/08/16 02:08:10;;;;;;;;;;;19.00;81.20;;;18.29;71.56;99959.22;4989285;28;19933;-82
2021/08/16 02:10:38;;;;;;;;;;;19.00;80.70;;;18.33;70.81;99960.44;4989411;28;19926;-82
2021/08/16 02:13:05;;;;;;;;;;;19.00;80.20;;;18.34;71.75;99958.50;4989291;28;20640;-82
2021/08/16 02:15:32;;;;;;;;;;;19.00;80.90;;;18.38;71.65;99956.91;4989442;28;19930;-84
2021/08/16 02:17:59;;;;;;;;;;;19.10;80.50;;;18.31;70.31;99956.22;4989100;28;20568;-84
2021/08/16 02:20:28;;;;;;;;;;;19.00;79.80;;;18.32;71.93;99944.97;4989461;28;20325;-84
2021/08/16 02:22:55;;;;;;;;;;;19.00;80.80;;;18.40;71.79;99942.88;4989547;28;19961;-84
2021/08/16 02:25:22;;;;;;;;;;;19.00;80.80;;;18.40;71.28;99942.88;4989556;28;20025;-84
2021/08/16 02:27:50;;;;;;;;;;;19.00;80.70;;;18.38;70.48;99940.38;4989169;28;19925;-84
2021/08/16 02:30:19;;;;;;;;;;;19.00;80.50;;;18.29;70.56;99934.44;4989447;28;19976;-84
2021/08/16 02:32:47;;;;;;;;;;;19.00;80.10;;;18.27;71.04;99944.88;4989778;28;19940;-84
2021/08/16 02:35:14;;;;;;;;;;;19.10;80.10;;;18.34;71.67;99945.56;4989380;28;19996;-84
2021/08/16 02:37:43;;;;;;;;;;;19.10;80.50;;;18.35;71.67;99952.75;4988972;28;19988;-84
2021/08/16 02:40:11;;;;;;;;;;;19.00;80.40;;;18.38;71.50;99940.38;4989076;28;19968;-84
2021/08/16 02:42:38;;;;;;;;;;;19.10;80.60;;;18.37;71.54;99944.22;4989274;28;19925;-84
2021/08/16 02:45:06;;;;;;;;;;;19.10;80.70;;;18.38;71.32;99950.56;4989083;28;19936;-84
2021/08/16 02:47:34;;;;;;;;;;;19.10;80.40;;;18.34;71.58;99951.06;5006300;28;19925;-82
2021/08/16 02:50:01;;;;;;;;;;;19.00;80.90;;;18.31;71.53;99945.22;5008498;28;19940;-83
2021/08/16 02:52:28;;;;;;;;;;;19.10;80.60;;;18.33;71.44;99941.16;5010773;28;19925;-82
2021/08/16 02:54:56;;;;;;;;;;;19.00;80.40;;;18.29;71.21;99937.19;5012646;28;19930;-82
2021/08/16 02:57:23;;;;;;;;;;;19.00;80.70;;;18.27;71.88;99927.53;5012307;28;19933;-83
2021/08/16 02:59:50;;;;;;;;;;;19.10;81.00;;;18.22;71.93;99928.28;5012498;28;19955;-83
2021/08/16 03:02:17;;;;;;;;;;;19.00;80.90;;;18.28;72.64;99929.22;4994798;28;19929;-83
2021/08/16 03:04:44;;;;;;;;;;;19.00;81.00;;;18.32;72.28;99931.19;5012510;28;19932;-83
2021/08/16 03:07:11;;;;;;;;;;;19.00;81.10;;;18.31;72.20;99929.50;5011938;28;19930;-82
2021/08/16 03:09:39;;;;;;;;;;;19.00;81.10;;;18.27;72.59;99928.34;5012393;28;19988;-82
2021/08/16 03:12:07;;;;;;;;;;;19.00;81.40;;;18.22;72.21;99919.16;5012112;28;19929;-83
2021/08/16 03:14:35;;;;;;;;;;;19.00;80.80;;;18.23;72.75;99915.34;5011262;28;20036;-82
2021/08/16 03:17:02;;;;;;;;;;;19.00;81.40;;;18.26;72.26;99917.56;5009909;28;19930;-82
2021/08/16 03:19:29;;;;;;;;;;;19.00;81.10;;;18.20;72.47;99910.31;5012105;28;19969;-83
2021/08/16 03:21:56;;;;;;;;;;;19.00;81.20;;;18.15;72.51;99913.84;5012022;28;20019;-83
2021/08/16 03:24:24;;;;;;;;;;;19.00;81.20;;;18.17;72.90;99911.66;5012039;28;20350;-83
2021/08/16 03:26:51;;;;;;;;;;;19.00;81.50;;;18.20;72.87;99905.66;5011741;28;19937;-82
2021/08/16 03:29:19;;;;;;;;;;;19.00;81.50;;;18.24;72.83;99906.84;5011940;28;20028;-82
2021/08/16 03:31:47;;;;;;;;;;;19.00;81.70;;;18.25;72.80;99913.16;5011625;28;20040;-83
2021/08/16 03:34:14;;;;;;;;;;;18.90;81.70;;;18.21;72.98;99917.50;5012081;28;20028;-82
2021/08/16 03:36:41;;;;;;;;;;;18.90;81.80;;;18.23;73.04;99915.34;5011599;28;19933;-82
2021/08/16 03:39:08;;;;;;;;;;;18.90;81.90;;;18.21;72.81;99921.09;5011852;28;20416;-83
2021/08/16 03:41:35;;;;;;;;;;;18.90;81.60;;;18.16;72.61;99921.00;5011727;28;19929;-83
2021/08/16 03:44:03;;;;;;;;;;;18.90;81.80;;;18.16;72.69;99921.00;5011714;28;19933;-83
2021/08/16 03:46:31;;;;;;;;;;;18.90;81.90;;;18.13;73.14;99922.34;5010940;28;20012;-82
2021/08/16 03:48:58;;;;;;;;;;;18.90;81.90;;;18.16;73.19;99926.50;5011528;28;20481;-83
2021/08/16 03:51:25;;;;;;;;;;;18.90;81.90;;;18.17;72.68;99911.66;5011361;28;19930;-83
2021/08/16 03:53:52;;;;;;;;;;;18.90;81.90;;;18.12;73.05;99914.31;5011279;28;20027;-82
2021/08/16 03:56:19;;;;;;;;;;;18.90;81.90;;;18.07;73.26;99917.00;5011105;28;19929;-83
2021/08/16 03:58:46;;;;;;;;;;;18.90;82.00;;;18.06;73.44;99915.31;5011535;28;20028;-83
2021/08/16 04:01:13;;;;;;;;;;;18.90;82.20;;;18.04;73.86;99918.31;5011270;28;20012;-83
2021/08/16 04:03:43;;;;;;;;;;;18.90;82.30;;;17.98;73.70;99914.66;5011490;28;19929;-82
2021/08/16 04:06:10;;;;;;;;;;;18.80;82.10;;;18.02;73.58;99914.16;5010901;28;19948;-82
2021/08/16 04:08:39;;;;;;;;;;;18.80;82.10;;;17.92;74.02;99910.13;5011267;28;20336;-83
2021/08/16 04:11:07;;;;;;;;;;;18.80;82.30;;;17.94;74.24;99913.47;4993600;28;19936;-83
2021/08/16 04:13:34;;;;;;;;;;;18.80;82.50;;;17.99;74.33;99909.97;4997499;28;19930;-82
2021/08/16 04:16:01;;;;;;;;;;;18.70;82.80;;;17.94;74.52;99910.72;4991359;28;20464;-82
2021/08/16 04:18:28;;;;;;;;;;;18.70;83.00;;;18.00;74.35;99913.56;4991230;28;19936;-82
2021/08/16 04:20:57;;;;;;;;;;;18.70;82.90;;;18.01;74.51;99921.59;4991301;28;19984;-82
2021/08/16 04:23:24;;;;;;;;;;;18.80;82.90;;;18.05;74.16;99910.88;4991354;28;19936;-83
2021/08/16 04:25:51;;;;;;;;;;;18.80;82.80;;;18.05;74.09;99914.50;4991207;28;19988;-83
2021/08/16 04:28:18;;;;;;;;;;;18.80;82.80;;;18.04;74.31;99917.50;4991144;28;20020;-79
2021/08/16 04:30:46;;;;;;;;;;;18.70;83.00;;;18.06;74.49;99920.84;4991122;28;19926;-79
2021/08/16 04:33:14;;;;;;;;;;;18.80;83.00;;;17.95;74.64;99919.81;4991417;28;20317;-79
2021/08/16 04:35:41;;;;;;;;;;;18.80;82.80;;;17.94;74.74;99918.16;4991446;28;19926;-78
2021/08/16 04:38:10;;;;;;;;;;;18.80;83.00;;;17.96;74.96;99916.81;4989758;28;20403;-78
2021/08/16 04:40:37;;;;;;;;;;;18.70;83.20;;;17.97;74.54;99917.63;4991165;28;19930;-79
2021/08/16 04:43:04;;;;;;;;;;;18.70;82.90;;;18.03;74.58;99913.91;4991234;28;19956;-78
2021/08/16 04:45:31;;;;;;;;;;;18.70;83.20;;;18.05;74.72;99919.16;4991041;28;20024;-78
2021/08/16 04:47:58;;;;;;;;;;;18.70;83.40;;;18.00;74.97;99928.16;4990746;28;19984;-78
2021/08/16 04:50:25;;;;;;;;;;;18.70;83.50;;;17.96;75.25;99916.81;4990957;28;20028;-79
2021/08/16 04:52:53;;;;;;;;;;;18.70;83.50;;;17.95;75.37;99926.16;4991040;28;19929;-79
2021/08/16 04:55:22;;;;;;;;;;;18.70;83.60;;;17.95;75.54;99920.66;4990971;28;19925;-79
2021/08/16 04:57:49;;;;;;;;;;;18.70;83.70;;;17.84;75.94;99916.06;4990777;28;19979;-79
2021/08/16 05:00:18;;;;;;;;;;;18.70;83.70;;;17.84;75.88;99913.31;4991278;28;20045;-79
2021/08/16 05:02:45;;;;;;;;;;;18.70;83.70;;;17.85;75.95;99914.13;5010526;28;19933;-76
2021/08/16 05:05:14;;;;;;;;;;;18.70;83.80;;;17.88;76.09;99919.97;5008702;28;20024;-76
2021/08/16 05:07:47;;;;;;;;;;;18.70;83.90;;;17.92;75.97;99921.16;5009536;28;19937;-77
2021/08/16 05:10:14;;;;;;;;;;;18.70;84.00;;;17.96;76.07;99913.22;5008366;28;19929;-77
2021/08/16 05:12:43;;;;;;;;;;;18.80;84.00;;;17.93;76.15;99914.56;5009961;28;20382;-77
2021/08/16 05:15:10;;;;;;;;;;;18.70;84.20;;;17.96;76.20;99922.31;5009162;28;19976;-76
2021/08/16 05:17:38;;;;;;;;;;;18.70;84.10;;;17.92;76.51;99914.81;5009308;28;19929;-81
2021/08/16 05:20:08;;;;;;;;;;;18.70;84.20;;;17.95;76.39;99915.16;5009640;28;20301;-80
2021/08/16 05:22:35;;;;;;;;;;;18.80;84.30;;;17.99;76.27;99915.47;5006281;28;19925;-81
2021/08/16 05:25:05;;;;;;;;;;;18.80;84.20;;;17.95;76.36;99915.16;5009591;28;19933;-81
2021/08/16 05:27:32;;;;;;;;;;;18.80;84.00;;;17.96;76.44;99919.56;5009350;28;19934;-81
2021/08/16 05:30:01;;;;;;;;;;;18.80;84.20;;;17.94;76.83;99918.97;5009456;28;19976;-81
2021/08/16 05:32:28;;;;;;;;;;;18.80;84.20;;;17.94;76.73;99921.72;5009665;28;20334;-81
2021/08/16 05:34:55;;;;;;;;;;;18.90;84.30;;;18.00;76.91;99921.84;5009694;28;19929;-82
2021/08/16 05:37:25;;;;;;;;;;;18.80;84.30;;;18.01;77.04;99912.47;5004019;28;20020;-83
2021/08/16 05:39:52;;;;;;;;;;;18.90;84.50;;;17.98;77.22;99913.81;4990033;28;19975;-79
2021/08/16 05:42:19;;;;;;;;;;;18.90;84.40;;;17.95;77.18;99925.31;5005164;28;19929;-80
2021/08/16 05:44:46;;;;;;;;;;;18.90;84.50;;;17.92;77.49;99915.66;5009833;28;19925;-79
2021/08/16 05:47:15;;;;;;;;;;;18.90;84.50;;;17.97;77.59;99918.50;5009550;28;19969;-79
2021/08/16 05:49:42;;;;;;;;;;;18.90;84.70;;;18.01;77.40;99920.72;5009478;28;20032;-81
2021/08/16 05:52:09;;;;;;;;;;;18.90;84.60;;;18.01;77.65;99912.47;5009441;28;19933;-81
2021/08/16 05:54:36;;;;;;;;;;;18.90;84.70;;;18.00;77.96;99916.31;5009328;28;20008;-81
2021/08/16 05:57:03;;;;;;;;;;;18.90;84.60;;;18.00;78.02;99911.66;5009080;28;20506;-80
2021/08/16 05:59:30;;;;;;;;;;;18.90;84.60;;;17.97;78.06;99910.25;5009373;28;20397;-81
2021/08/16 06:01:57;;;;;;;;;;;19.00;84.60;;;18.00;78.23;99916.31;5008999;28;20145;-78
2021/08/16 06:04:26;;;;;;;;;;;19.00;84.70;;;17.98;78.48;99917.41;5009126;28;20365;-79
2021/08/16 06:06:53;;;;;;;;;;;19.00;84.80;;;17.95;78.70;99920.66;5008433;28;19968;-79
2021/08/16 06:09:20;;;;;;;;;;;19.00;84.60;;;18.03;78.22;99921.31;5008944;28;19931;-79
2021/08/16 06:11:47;;;;;;;;;;;19.00;84.60;;;18.06;78.72;99918.06;5009150;28;20020;-79
2021/08/16 06:14:14;;;;;;;;;;;19.00;84.90;;;18.03;78.97;99918.56;5009220;28;20028;-78
2021/08/16 06:16:41;;;;;;;;;;;19.10;84.90;;;18.07;78.57;99917.00;5008798;28;19968;-78
2021/08/16 06:19:09;;;;;;;;;;;19.10;84.90;;;18.07;78.49;99919.75;5009053;28;20280;-78
2021/08/16 06:21:42;;;;;;;;;;;19.10;84.70;;;18.13;78.70;99916.00;5006208;28;19932;-80
2021/08/16 06:24:09;;;;;;;;;;;19.10;84.90;;;18.12;78.65;99911.56;4971881;28;20024;-80
2021/08/16 06:26:37;;;;;;;;;;;19.10;84.90;;;18.06;78.69;99909.81;4989769;28;19961;-80
2021/08/16 06:29:04;;;;;;;;;;;19.20;84.80;;;18.09;78.83;99898.31;4993451;28;20029;-80
2021/08/16 06:31:31;;;;;;;;;;;19.10;84.80;;;18.07;79.05;99889.47;5008223;28;19929;-80
2021/08/16 06:33:58;;;;;;;;;;;19.10;84.90;;;18.09;79.09;99892.81;4995238;28;19929;-80
2021/08/16 06:36:25;;;;;;;;;;;19.20;84.90;;;18.07;79.48;99889.47;4994939;28;19936;-80
2021/08/16 06:38:54;;;;;;;;;;;19.20;84.90;;;18.09;79.68;99906.56;5011640;28;19980;-80
2021/08/16 06:41:21;;;;;;;;;;;19.20;84.90;;;18.09;79.50;99909.34;5012583;28;19988;-81
2021/08/16 06:43:48;;;;;;;;;;;19.30;84.70;;;18.10;79.17;99910.97;5012893;28;20015;-86
2021/08/16 06:46:15;;;;;;;;;;;19.30;84.50;;;18.08;79.88;99904.91;4994855;28;19933;-84
2021/08/16 06:48:43;;;;;;;;;;;19.30;84.70;;;18.17;79.83;99901.47;5012454;28;20382;-80
2021/08/16 06:51:10;;;;;;;;;;;19.40;84.60;;;18.20;79.42;99897.41;5000808;28;19930;-85
2021/08/16 06:56:08;;;;;;;;;;;19.60;83.90;;;18.23;79.98;99890.56;5016853;28;19932;-80
2021/08/16 06:58:35;;;;;;;;;;;19.80;83.50;;;18.25;80.40;99880.13;5012625;28;20031;-80
2021/08/16 07:01:02;;;;;;;;;;;20.00;83.00;;;18.36;80.29;99871.75;5012612;28;19925;-80
2021/08/16 07:03:29;;;;;;;;;;;20.30;82.00;;;18.42;79.86;99871.84;5012731;28;19984;-80
2021/08/16 07:05:56;;;;;;;;;;;20.50;80.80;;;18.56;80.38;99881.41;4992656;28;19926;-80
2021/08/16 07:08:23;;;;;;;;;;;20.80;80.60;;;18.56;79.85;99886.91;4992780;28;19929;-79
2021/08/16 07:10:51;;;;;;;;;;;21.00;79.70;;;18.69;79.77;99894.00;4992794;28;19992;-79
2021/08/16 07:13:19;;;;;;;;;;;21.20;79.40;;;18.70;79.04;99899.25;4993052;28;19926;-80
2021/08/16 07:15:46;;;;;;;;;;;21.30;78.60;;;18.71;79.64;99906.44;4992560;28;19960;-80
2021/08/16 07:18:13;;;;;;;;;;;21.20;79.00;;;18.75;79.27;99907.63;4991505;28;19976;-79
2021/08/16 07:20:41;;;;;;;;;;;21.00;79.30;;;18.83;79.27;99902.75;4992984;28;20400;-80
2021/08/16 07:23:08;;;;;;;;;;;21.00;79.80;;;18.88;79.30;99900.09;4992769;28;19933;-79
2021/08/16 07:25:35;;;;;;;;;;;21.20;79.50;;;18.91;78.80;99905.94;4992758;28;19929;-80
2021/08/16 07:28:02;;;;;;;;;;;21.20;78.70;;;18.94;78.68;99910.94;4992534;28;20365;-79
2021/08/16 07:30:30;;;;;;;;;;;21.10;79.50;;;18.93;79.06;99913.94;4992241;28;19930;-79
2021/08/16 07:32:58;;;;;;;;;;;21.00;79.60;;;18.98;78.91;99916.75;4991868;28;20015;-79
2021/08/16 07:35:25;;;;;;;;;;;20.90;80.20;;;18.98;79.05;99911.25;4992584;28;19930;-80
2021/08/16 07:37:52;;;;;;;;;;;20.90;80.70;;;18.94;78.58;99910.09;4991719;28;19925;-80
2021/08/16 07:40:20;;;;;;;;;;;20.80;80.50;;;18.93;78.30;99911.19;4992548;28;20020;-80
2021/08/16 07:42:47;;;;;;;;;;;20.80;80.30;;;18.90;78.47;99918.03;4992491;28;19937;-79
2021/08/16 07:45:14;;;;;;;;;;;20.80;80.30;;;18.90;78.37;99917.22;4992402;28;19930;-84
2021/08/16 07:47:43;;;;;;;;;;;20.80;80.50;;;18.93;78.04;99913.94;4991608;28;20362;-80
2021/08/16 07:50:11;;;;;;;;;;;20.70;80.40;;;18.97;78.11;99917.03;4974375;28;20314;-79
2021/08/16 07:52:39;;;;;;;;;;;20.80;80.40;;;19.03;78.68;99911.31;4992376;28;20355;-80
2021/08/16 07:55:08;;;;;;;;;;;20.90;80.70;;;19.04;78.48;99915.75;4991357;28;19972;-80
2021/08/16 07:57:35;;;;;;;;;;;20.90;80.60;;;19.04;78.64;99920.41;4991827;28;19999;-80
2021/08/16 08:00:03;;;;;;;;;;;20.90;80.70;;;18.98;77.27;99927.78;4992034;28;19925;-79
2021/08/16 08:02:39;;;;;;;;;;;20.80;79.90;;;18.91;78.05;99922.47;4991953;28;19936;-79
2021/08/16 08:05:09;;;;;;;;;;;20.60;80.70;;;18.95;78.53;99933.84;4991851;28;19976;-80
2021/08/16 08:07:37;;;;;;;;;;;20.50;81.50;;;18.99;78.14;99923.97;4991638;28;20028;-79
2021/08/16 08:10:05;;;;;;;;;;;20.50;81.80;;;18.99;78.33;99926.72;4991724;28;19984;-79
2021/08/16 08:12:32;;;;;;;;;;;20.50;81.80;;;19.00;78.33;99925.63;4991867;28;19933;-79
2021/08/16 08:14:59;;;;;;;;;;;20.50;81.90;;;18.96;78.47;99924.47;4991569;28;19945;-80
2021/08/16 08:17:26;;;;;;;;;;;20.50;81.70;;;18.97;78.50;99931.66;4991408;28;19984;-80
2021/08/16 08:19:54;;;;;;;;;;;20.50;82.00;;;18.95;78.61;99929.16;4991767;28;19960;-80
2021/08/16 08:22:23;;;;;;;;;;;20.40;82.10;;;18.91;78.63;99933.50;4974009;28;20037;-79
2021/08/16 08:24:51;;;;;;;;;;;20.50;82.00;;;18.81;78.40;99918.72;4991717;28;20062;-79
2021/08/16 08:27:18;;;;;;;;;;;20.50;81.40;;;18.92;79.18;99917.78;4991181;28;20366;-79
2021/08/16 08:29:46;;;;;;;;;;;20.80;81.30;;;19.00;78.99;99917.38;4991362;28;19936;-79
2021/08/16 08:32:13;;;;;;;;;;;21.00;80.30;;;19.08;80.14;99927.94;4991420;28;20024;-79
2021/08/16 08:34:41;;;;;;;;;;;21.30;80.30;;;19.06;79.08;99924.63;4991285;28;19930;-79
2021/08/16 08:37:11;;;;;;;;;;;21.30;79.50;;;19.09;78.95;99929.59;4990559;28;19947;-79
2021/08/16 08:39:39;;;;;;;;;;;21.30;79.20;;;19.20;79.10;99938.84;4991186;28;19961;-79
2021/08/16 08:42:07;;;;;;;;;;;21.30;79.80;;;19.18;78.85;99937.44;4990682;28;20020;-79
2021/08/16 08:44:35;;;;;;;;;;;21.20;79.90;;;19.11;78.66;99930.22;4990953;28;19930;-79
2021/08/16 08:47:02;;;;;;;;;;;21.10;80.10;;;19.06;79.04;99943.91;4990631;28;19970;-79
2021/08/16 08:49:29;;;;;;;;;;;21.10;80.30;;;19.10;78.98;99930.47;4990131;28;20450;-79
2021/08/16 08:51:56;;;;;;;;;;;20.90;80.50;;;19.00;78.67;99933.06;4990790;28;19930;-79
2021/08/16 08:54:23;;;;;;;;;;;20.90;80.60;;;19.06;78.56;99935.66;4990873;28;19972;-80
2021/08/16 08:56:52;;;;;;;;;;;20.80;81.10;;;19.09;79.12;99940.63;4990700;28;20048;-79
2021/08/16 08:59:19;;;;;;;;;;;20.70;81.60;;;19.07;78.60;99934.53;4991096;28;20448;-79
2021/08/16 09:01:53;;;;;;;;;;;20.70;81.40;;;19.10;78.76;99936.81;4990562;28;19930;-78
2021/08/16 09:04:20;;;;;;;;;;;20.70;82.00;;;19.08;79.09;99933.47;4990601;28;19929;-78
2021/08/16 09:06:47;;;;;;;;;;;20.60;82.00;;;19.11;78.93;99927.44;4990249;28;19930;-78
2021/08/16 09:09:15;;;;;;;;;;;20.60;82.20;;;19.11;78.82;99930.22;4990528;28;19976;-79
2021/08/16 09:11:43;;;;;;;;;;;20.60;82.30;;;19.05;78.36;99930.38;4990640;28;19969;-81
2021/08/16 09:14:11;;;;;;;;;;;20.50;81.90;;;19.06;78.90;99930.13;4990420;28;20394;-81
2021/08/16 09:16:39;;;;;;;;;;;20.50;82.60;;;19.06;79.02;99930.13;4990227;28;20377;-83
2021/08/16 09:19:17;;;;;;;;;;;20.40;82.90;;;19.04;78.87;99932.31;4990386;28;20084;-81
2021/08/16 09:21:47;;;;;;;;;;;20.40;83.00;;;19.04;78.64;99932.31;4989913;28;19982;-82
2021/08/16 09:24:14;;;;;;;;;;;20.40;82.80;;;19.05;79.08;99928.44;4990278;28;20395;-82
2021/08/16 09:26:43;;;;;;;;;;;20.40;83.10;;;19.05;79.42;99931.19;4990171;28;19972;-81
2021/08/16 09:29:15;;;;;;;;;;;20.40;83.40;;;19.07;79.95;99942.00;4989574;28;19930;-81
2021/08/16 09:31:53;;;;;;;;;;;20.40;83.60;;;19.07;79.86;99929.03;4990375;28;20007;-81
2021/08/16 09:34:33;;;;;;;;;;;20.50;83.50;;;19.04;79.71;99932.31;4990054;28;20438;-83
2021/08/16 09:37:03;;;;;;;;;;;20.50;83.30;;;19.05;80.31;99922.94;4989812;28;20031;-80
2021/08/16 09:39:34;;;;;;;;;;;20.50;83.30;;;19.09;80.15;99924.09;4972239;28;20210;-81
2021/08/16 09:42:03;;;;;;;;;;;20.60;83.10;;;19.11;79.99;99932.09;4989936;28;20359;-82
2021/08/16 09:44:32;;;;;;;;;;;20.60;83.00;;;19.10;80.61;99925.75;4989933;28;19929;-81
2021/08/16 09:47:01;;;;;;;;;;;20.60;83.30;;;19.13;80.77;99921.66;4988691;28;19926;-82
2021/08/16 09:49:28;;;;;;;;;;;20.60;83.50;;;19.16;81.64;99918.41;4989914;28;19929;-83
2021/08/16 09:52:06;;;;;;;;;;;20.60;84.10;;;19.11;81.30;99927.44;4989711;28;20699;-82
2021/08/16 09:54:34;;;;;;;;;;;20.60;83.70;;;19.07;81.49;99919.94;4989794;28;19934;-83
2021/08/16 09:57:02;;;;;;;;;;;20.60;84.10;;;19.05;83.08;99919.34;4989472;28;20032;-84
2021/08/16 09:59:32;;;;;;;;;;;20.50;84.80;;;18.95;84.30;99928.31;4989912;28;19969;-85
2021/08/16 10:02:00;;;;;;;;;;;20.50;85.10;;;18.95;84.40;99933.84;4989680;28;19926;-84
2021/08/16 10:04:28;;;;;;;;;;;20.50;85.50;;;18.88;85.15;99938.69;4977880;28;20017;-84
2021/08/16 10:06:57;;;;;;;;;;;20.40;86.20;;;18.88;85.86;99949.72;4970154;28;19958;-86
2021/08/16 10:09:25;;;;;;;;;;;20.40;86.70;;;18.79;86.39;99951.19;4970374;28;20390;-83
2021/08/16 10:11:53;;;;;;;;;;;20.30;87.30;;;18.70;87.66;99959.91;4970377;28;19930;-85
2021/08/16 10:14:23;;;;;;;;;;;20.20;87.70;;;18.67;88.18;99952.13;4970332;28;19968;-85
2021/08/16 10:16:53;;;;;;;;;;;20.10;88.70;;;18.71;88.32;99961.56;4956335;28;19926;-85
2021/08/16 10:19:24;;;;;;;;;;;20.10;88.80;;;18.65;88.99;99948.78;4990670;28;19929;-91
2021/08/16 10:21:51;;;;;;;;;;;20.10;89.20;;;18.68;89.06;99961.25;4988835;28;20028;-90
2021/08/16 10:24:20;;;;;;;;;;;20.10;89.20;;;18.69;89.56;99963.75;4972352;28;19969;-92
2021/08/16 10:26:58;;;;;;;;;;;20.10;89.30;;;18.70;90.43;99976.44;4972373;28;20023;-89
2021/08/16 10:29:26;;;;;;;;;;;20.10;90.00;;;18.62;90.57;99978.78;4972943;28;20385;-91
2021/08/16 10:31:55;;;;;;;;;;;20.10;89.90;;;18.59;90.33;100015.13;4972533;28;20383;-90
2021/08/16 10:34:26;;;;;;;;;;;20.10;89.70;;;18.58;89.11;100002.41;4990587;28;19969;-84
2021/08/16 10:36:58;;;;;;;;;;;20.00;89.70;;;18.56;88.75;100005.41;4989826;28;20006;-85
2021/08/16 10:39:36;;;;;;;;;;;19.90;89.60;;;18.51;88.25;100006.19;4996895;28;20015;-86
2021/08/16 10:42:10;;;;;;;;;;;19.90;89.70;;;18.31;88.18;100017.66;5005984;28;19979;-89
2021/08/16 10:44:39;;;;;;;;;;;19.90;88.90;;;18.23;88.53;100012.56;4990204;28;20232;-89
2021/08/16 10:47:08;;;;;;;;;;;19.80;89.30;;;18.31;88.80;100011.34;4990986;28;20480;-89
2021/08/16 10:49:37;;;;;;;;;;;19.80;89.40;;;18.33;88.95;100004.50;4988708;28;19972;-89
2021/08/16 10:52:05;;;;;;;;;;;19.80;89.30;;;18.31;88.79;100011.34;4985832;28;20009;-87
2021/08/16 10:54:34;;;;;;;;;;;19.90;89.10;;;18.35;88.84;100013.34;4989268;28;19930;-88
2021/08/16 10:57:01;;;;;;;;;;;19.80;89.00;;;18.41;88.95;100021.69;4971813;28;19936;-89
2021/08/16 10:59:30;;;;;;;;;;;19.80;89.30;;;18.45;88.33;100022.88;4988031;28;19976;-89
2021/08/16 11:01:58;;;;;;;;;;;19.80;89.50;;;18.36;88.04;100023.28;4955285;28;19958;-92
2021/08/16 11:04:32;;;;;;;;;;;19.70;89.30;;;18.35;88.17;100035.41;4951064;28;19926;-92
2021/08/16 11:07:01;;;;;;;;;;;19.70;89.70;;;18.35;88.71;100038.16;4967497;28;20028;-89
2021/08/16 11:09:30;;;;;;;;;;;19.70;89.80;;;18.36;88.65;100037.06;4952490;28;19934;-89
2021/08/16 11:12:04;;;;;;;;;;;19.70;90.10;;;18.36;88.75;100027.97;4967849;28;19957;-91
2021/08/16 11:14:32;;;;;;;;;;;19.60;90.10;;;18.40;89.07;100033.81;4974085;28;19934;-89
2021/08/16 11:17:00;;;;;;;;;;;19.70;90.60;;;18.43;89.49;100031.41;4983420;28;20318;-89
2021/08/16 11:19:28;;;;;;;;;;;19.60;90.60;;;18.41;89.28;100040.97;5001869;28;20012;-89
2021/08/16 11:22:02;;;;;;;;;;;19.70;90.70;;;18.43;89.49;100041.56;4983066;28;19933;-89